Seaside Park, NJ

7:24 PM EST on December 09, 2016 (GMT -0500)
Seaside Park | | Change Station

Elev 7 ft 39.93 °N, 74.08 °W | Updated 134 days ago

Partly Cloudy
Partly Cloudy
68 °F
Feels Like 68 °F
N
9
Wind Variable Wind from South
Gusts mph

Today
High -- | Low -- °F
--% Chance of Precip.
Yesterday
High -- | Low -- °F
Precip. -- in
Pressure 30.31 in
Visibility 10.0 miles
Clouds Few 7000 ft
Dew Point 55 °F
Humidity 63%
Rainfall in
Snow Depth Not available.
7:06 AM 4:31 PM
Waxing Gibbous, 78% visible
METAR KMJX 092356Z AUTO 29007KT 10SM FEW070 00/M06 A3029 RMK AO2 SLP263 6//// T00001056 10033 20000 53027 FZRANO PNO $
Pressure 30.31 in
Visibility 10.0 miles
Clouds Few 7000 ft
Dew Point 55 °F
Humidity 63%
Rainfall in
Snow Depth Not available.
7:06 AM 4:31 PM
Waxing Gibbous, 78% visible
METAR KMJX 092356Z AUTO 29007KT 10SM FEW070 00/M06 A3029 RMK AO2 SLP263 6//// T00001056 10033 20000 53027 FZRANO PNO $

10-Day Weather Forecast

Almanac

Astronomy

Dec. 09, 2016 Rise Set
Actual Time
Civil Twilight
Nautical Twilight
Astronomical Twilight
Moon
Length of Visible Light
Length of Day
Tomorrow will be .
, % of the Moon is Illuminated

Today's Extremes

State Highs State Lows

Community

WunderPhotos

Upload Photos

1,956,534 photos uploaded!

WunderBlog® & News

Nearby

Air Quality

  Air Quality AQ Index Pollutant
Not available.

Snow Depth

Station Depth Elevation

Earthquake Activity

City Distance Mag. Time & Date
Minimum magnitude displayed is 2.5.

Coastal Water Temperatures

Place Temperature

Stations

Nearby Weather Stations

Station Location Temp. Windchill Dew Point Humidity Wind Precip. Elev Updated Type
                   

Watches & Warnings

There are currently no watches in effect.